Port Alice, Canada
Current Conditions -  °F | °C
As of 12:00 PM on Sunday 21 Dec 2014 (Local Time) from CYZT Reporting Station
Rain Showers Rain Showers  
Wind Chill: 44°   Ceiling: 4600
Heat Index: 46°   Visibility: 12mi
Dew Point: 45°   Wind: 5mph
Humidity: 93%   Direction: 160°SSE
Pressure: 29.79"   Gusts: NA
Location:  50.38°N, 127.43°W
Report Text: CYZT 212000Z 16004KT 12SM -SHRA FEW012 SCT032 BKN046 08/07 A2979 RMK SF1SC3SC4 SF TR SLP090
Loading
Personal Weather Stations






























Interactive Weather Map New forecast layout! Learn more

10-Day Weather Forecast

Advertisements
Track Severe Weather on mobile